createdAt,value
2018-01-26T00:00:18.500Z,4.90
2018-01-26T00:02:48.398Z,4.90
2018-01-26T00:05:17.765Z,4.80
2018-01-26T00:07:47.586Z,4.70
2018-01-26T00:10:16.700Z,4.70
2018-01-26T00:12:46.390Z,4.80
2018-01-26T00:15:16.085Z,4.80
2018-01-26T00:17:45.695Z,4.70
2018-01-26T00:20:15.463Z,4.70
2018-01-26T00:22:45.632Z,4.70
2018-01-26T00:25:14.998Z,4.70
2018-01-26T00:27:45.416Z,4.90
2018-01-26T00:30:14.811Z,4.90
2018-01-26T00:32:44.292Z,4.90
2018-01-26T00:35:14.513Z,5.00
2018-01-26T00:37:43.629Z,5.00
2018-01-26T00:40:13.202Z,4.90
2018-01-26T00:42:42.620Z,4.90
2018-01-26T00:45:11.877Z,4.90
2018-01-26T00:47:41.177Z,4.90
2018-01-26T00:50:10.896Z,4.90
2018-01-26T00:52:40.401Z,4.90
2018-01-26T00:55:09.662Z,4.80
2018-01-26T00:57:39.073Z,4.60
2018-01-26T01:00:08.262Z,4.60
2018-01-26T01:02:37.421Z,4.70
2018-01-26T01:05:06.883Z,4.70
2018-01-26T01:07:35.986Z,4.70
2018-01-26T01:10:06.108Z,4.60
2018-01-26T01:12:35.893Z,4.60
2018-01-26T01:15:05.241Z,4.50
2018-01-26T01:17:34.936Z,4.60
2018-01-26T01:20:04.772Z,4.60
2018-01-26T01:22:34.189Z,4.70
2018-01-26T01:25:04.084Z,4.70
2018-01-26T01:27:33.363Z,4.70
2018-01-26T01:30:02.664Z,4.70
2018-01-26T01:32:32.171Z,4.80
2018-01-26T01:35:02.206Z,4.70
2018-01-26T01:37:31.716Z,4.70
2018-01-26T01:40:01.097Z,4.70
2018-01-26T01:42:30.572Z,4.60
2018-01-26T01:44:59.941Z,4.60
2018-01-26T01:47:29.205Z,4.60
2018-01-26T01:50:00.962Z,4.50
2018-01-26T01:52:30.456Z,4.60
2018-01-26T01:54:59.766Z,4.60
2018-01-26T01:57:29.473Z,4.50
2018-01-26T01:59:58.766Z,4.60
2018-01-26T02:02:28.195Z,4.60
2018-01-26T02:04:58.090Z,4.50
2018-01-26T02:07:27.449Z,4.60
2018-01-26T02:09:56.784Z,4.60
2018-01-26T02:12:26.828Z,4.60
2018-01-26T02:14:56.607Z,4.60
2018-01-26T02:17:25.717Z,4.60
2018-01-26T02:19:55.882Z,4.50
2018-01-26T02:22:25.199Z,4.50
2018-01-26T02:24:54.385Z,4.40
2018-01-26T02:27:23.941Z,4.40
2018-01-26T02:29:53.237Z,4.50
2018-01-26T02:32:22.537Z,4.50
2018-01-26T02:34:52.562Z,4.60
2018-01-26T02:37:22.190Z,4.50
2018-01-26T02:39:51.561Z,4.50
2018-01-26T02:42:22.057Z,4.50
2018-01-26T02:44:51.390Z,4.50
2018-01-26T02:47:20.807Z,4.50
2018-01-26T02:49:50.741Z,4.50
2018-01-26T02:52:20.463Z,4.60
2018-01-26T02:54:49.830Z,4.60
2018-01-26T02:57:19.693Z,4.60
2018-01-26T02:59:48.997Z,4.60
2018-01-26T03:02:18.253Z,4.60
2018-01-26T03:04:47.718Z,4.60
2018-01-26T03:07:17.037Z,4.60
2018-01-26T03:09:47.115Z,4.60
2018-01-26T03:12:16.993Z,4.60
2018-01-26T03:14:46.118Z,4.60
2018-01-26T03:17:15.424Z,4.50
2018-01-26T03:19:45.206Z,4.50
2018-01-26T03:22:14.565Z,4.50
2018-01-26T03:24:44.029Z,4.60
2018-01-26T03:27:13.841Z,4.60
2018-01-26T03:29:43.181Z,4.40
2018-01-26T03:32:12.701Z,4.30
2018-01-26T03:34:42.405Z,4.30
2018-01-26T03:37:11.713Z,4.10
2018-01-26T03:39:41.013Z,4.10
2018-01-26T03:42:11.165Z,4.20
2018-01-26T03:44:40.461Z,4.20
2018-01-26T03:47:09.804Z,4.20
2018-01-26T03:49:40.029Z,4.30
2018-01-26T03:52:09.136Z,4.30
2018-01-26T03:54:38.669Z,4.40
2018-01-26T03:57:09.077Z,4.60
2018-01-26T03:59:38.169Z,4.60
2018-01-26T04:02:07.549Z,4.60
2018-01-26T04:04:37.285Z,4.70
2018-01-26T04:07:06.628Z,4.80
2018-01-26T04:09:35.946Z,4.70
2018-01-26T04:12:05.565Z,4.70
2018-01-26T04:14:35.104Z,4.60
2018-01-26T04:17:04.510Z,4.70
2018-01-26T04:19:33.605Z,4.70
2018-01-26T04:22:02.921Z,4.60
2018-01-26T04:24:32.214Z,4.50
2018-01-26T04:27:01.786Z,4.50
2018-01-26T04:29:31.449Z,4.40
2018-01-26T04:32:01.033Z,4.30
2018-01-26T04:34:30.540Z,4.30
2018-01-26T04:36:59.963Z,4.30
2018-01-26T04:39:29.334Z,4.40
2018-01-26T04:42:00.689Z,4.70
2018-01-26T04:44:30.313Z,4.70
2018-01-26T04:47:00.033Z,4.80
2018-01-26T04:49:29.428Z,4.80
2018-01-26T04:51:58.698Z,4.70
2018-01-26T04:54:27.850Z,4.60
2018-01-26T04:56:57.329Z,4.60
2018-01-26T04:59:27.201Z,4.70
2018-01-26T05:01:56.325Z,4.70
2018-01-26T05:04:27.420Z,4.60
2018-01-26T05:06:56.987Z,4.60
2018-01-26T05:09:26.353Z,4.60
2018-01-26T05:11:55.737Z,4.60
2018-01-26T05:14:25.216Z,4.60
2018-01-26T05:16:54.864Z,4.70
2018-01-26T05:19:25.116Z,4.70
2018-01-26T05:21:54.376Z,4.70
2018-01-26T05:24:23.488Z,4.70
2018-01-26T05:26:52.893Z,4.80
2018-01-26T05:29:22.968Z,4.80
2018-01-26T05:31:52.309Z,4.80
2018-01-26T05:34:22.540Z,4.70
2018-01-26T05:36:51.640Z,4.70
2018-01-26T05:39:20.696Z,4.70
2018-01-26T05:41:50.413Z,4.70
2018-01-26T05:44:19.692Z,4.80
2018-01-26T05:46:48.974Z,4.90
2018-01-26T05:49:18.514Z,4.90
2018-01-26T05:51:47.807Z,4.90
2018-01-26T05:54:16.976Z,4.90
2018-01-26T05:56:47.128Z,4.80
2018-01-26T05:59:16.186Z,4.80
2018-01-26T06:01:46.025Z,4.80
2018-01-26T06:04:15.390Z,4.80
2018-01-26T06:06:45.501Z,4.90
2018-01-26T06:09:15.369Z,4.90
2018-01-26T06:11:44.937Z,4.90
2018-01-26T06:14:14.123Z,4.90
2018-01-26T06:16:43.444Z,4.90
2018-01-26T06:19:12.849Z,5.00
2018-01-26T06:21:42.797Z,4.90
2018-01-26T06:24:12.765Z,4.90
2018-01-26T06:26:42.158Z,4.90
2018-01-26T06:29:11.559Z,4.90
2018-01-26T06:31:40.713Z,4.90
2018-01-26T06:34:10.110Z,4.80
2018-01-26T06:36:39.257Z,4.80
2018-01-26T06:39:09.100Z,4.80
2018-01-26T06:41:38.486Z,4.80
2018-01-26T06:44:07.669Z,4.80
2018-01-26T06:46:38.410Z,4.90
2018-01-26T06:49:08.617Z,4.90
2018-01-26T06:51:37.700Z,4.90
2018-01-26T06:54:06.761Z,5.10
2018-01-26T06:56:36.173Z,5.00
2018-01-26T06:59:05.442Z,4.80
2018-01-26T07:01:34.590Z,4.80
2018-01-26T07:04:06.897Z,4.90
2018-01-26T07:06:37.066Z,4.90
2018-01-26T07:09:06.461Z,4.90
2018-01-26T07:11:35.997Z,5.00
2018-01-26T07:14:05.214Z,5.10
2018-01-26T07:16:35.194Z,5.20
2018-01-26T07:19:04.653Z,5.20
2018-01-26T07:21:33.816Z,5.30
2018-01-26T07:24:03.831Z,5.40
2018-01-26T07:26:33.445Z,5.30
2018-01-26T07:29:03.358Z,5.50
2018-01-26T07:31:32.657Z,5.50
2018-01-26T07:34:02.125Z,5.50
2018-01-26T07:36:31.308Z,5.50
2018-01-26T07:39:00.756Z,5.40
2018-01-26T07:41:31.288Z,5.60
2018-01-26T07:44:01.389Z,5.60
2018-01-26T07:46:30.841Z,5.60
2018-01-26T07:49:00.350Z,5.60
2018-01-26T07:51:29.721Z,5.60
2018-01-26T07:53:59.617Z,5.70
2018-01-26T07:56:28.992Z,5.60
2018-01-26T07:58:58.061Z,5.80
2018-01-26T08:01:27.169Z,5.80
2018-01-26T08:03:58.129Z,5.80
2018-01-26T08:06:27.225Z,5.80
2018-01-26T08:08:56.592Z,5.80
2018-01-26T08:11:26.066Z,5.90
2018-01-26T08:13:55.141Z,6.00
2018-01-26T08:16:24.368Z,6.00
2018-01-26T08:18:53.614Z,6.10
2018-01-26T08:21:22.974Z,6.10
2018-01-26T08:23:52.429Z,6.20
2018-01-26T08:26:21.856Z,6.10
2018-01-26T08:28:50.921Z,6.20
2018-01-26T08:31:20.005Z,6.10
2018-01-26T08:33:49.450Z,6.20
2018-01-26T08:36:18.571Z,6.20
2018-01-26T08:38:47.720Z,6.30
2018-01-26T08:41:17.162Z,6.50
2018-01-26T08:43:46.270Z,6.70
2018-01-26T08:46:15.349Z,6.60
2018-01-26T08:48:45.561Z,6.80
2018-01-26T08:51:14.664Z,6.70
2018-01-26T08:53:43.744Z,6.80
2018-01-26T08:56:13.365Z,6.80
2018-01-26T08:58:42.501Z,6.80
2018-01-26T09:01:12.386Z,7.20
2018-01-26T09:03:42.345Z,7.20
2018-01-26T09:06:11.437Z,7.20
2018-01-26T09:08:40.577Z,7.30
2018-01-26T09:11:10.164Z,7.50
2018-01-26T09:13:39.474Z,7.70
2018-01-26T09:16:09.558Z,7.80
2018-01-26T09:18:39.002Z,7.80
2018-01-26T09:21:08.320Z,7.80
2018-01-26T09:23:37.496Z,7.70
2018-01-26T09:26:07.073Z,8.00
2018-01-26T09:28:37.070Z,8.20
2018-01-26T09:31:06.950Z,8.10
2018-01-26T09:33:36.580Z,8.10
2018-01-26T09:36:06.007Z,8.30
2018-01-26T09:38:35.356Z,8.30
2018-01-26T09:41:05.796Z,8.40
2018-01-26T09:43:34.912Z,8.40
2018-01-26T09:46:04.833Z,8.80
2018-01-26T09:48:35.022Z,8.90
2018-01-26T09:51:04.095Z,8.80
2018-01-26T09:53:33.305Z,8.90
2018-01-26T09:56:02.697Z,8.90
2018-01-26T09:58:31.819Z,8.80
2018-01-26T10:01:01.118Z,8.60
2018-01-26T10:03:30.582Z,8.80
2018-01-26T10:05:59.749Z,8.90
2018-01-26T10:08:29.801Z,9.10
2018-01-26T10:10:59.994Z,9.00
2018-01-26T10:13:29.831Z,9.00
2018-01-26T10:15:59.146Z,9.00
2018-01-26T10:18:31.408Z,9.10
2018-01-26T10:21:01.558Z,9.20
2018-01-26T10:23:30.805Z,9.20
2018-01-26T10:26:00.993Z,9.30
2018-01-26T10:28:30.116Z,9.30
2018-01-26T10:31:00.157Z,9.20
2018-01-26T10:33:29.301Z,9.20
2018-01-26T10:35:58.575Z,9.60
2018-01-26T10:38:28.469Z,9.30
2018-01-26T10:40:58.178Z,9.30
2018-01-26T10:43:27.393Z,9.50
2018-01-26T10:45:56.485Z,9.60
2018-01-26T10:48:26.138Z,9.80
2018-01-26T10:50:56.549Z,9.80
2018-01-26T10:53:26.452Z,10.00
2018-01-26T10:55:55.965Z,10.00
2018-01-26T10:58:25.258Z,10.20
2018-01-26T11:00:54.809Z,9.70
2018-01-26T11:03:24.293Z,10.10
2018-01-26T11:05:53.629Z,10.40
2018-01-26T11:08:22.791Z,8.70
2018-01-26T11:10:52.337Z,7.70
2018-01-26T11:13:21.773Z,8.00
2018-01-26T11:15:51.163Z,8.00
2018-01-26T11:18:21.626Z,7.20
2018-01-26T11:20:51.116Z,7.20
2018-01-26T11:23:20.544Z,7.20
2018-01-26T11:25:50.917Z,6.80
2018-01-26T11:28:50.324Z,6.80
2018-01-26T11:31:19.912Z,6.80
2018-01-26T11:33:49.163Z,7.20
2018-01-26T11:36:19.050Z,8.50
2018-01-26T11:38:48.222Z,8.50
2018-01-26T11:41:17.337Z,9.00
2018-01-26T11:43:46.619Z,9.70
2018-01-26T11:46:16.956Z,10.70
2018-01-26T11:48:47.091Z,11.00
2018-01-26T11:51:16.309Z,11.00
2018-01-26T11:53:46.147Z,11.00
2018-01-26T11:56:15.278Z,10.80
2018-01-26T11:58:45.565Z,11.50
2018-01-26T12:01:16.113Z,11.80
2018-01-26T12:03:46.150Z,11.60
2018-01-26T12:06:15.631Z,11.60
2018-01-26T12:08:45.593Z,11.70
2018-01-26T12:11:15.971Z,11.80
2018-01-26T12:13:45.111Z,11.90
2018-01-26T12:16:14.736Z,12.00
2018-01-26T12:18:43.894Z,12.40
2018-01-26T12:21:13.017Z,12.90
2018-01-26T12:23:42.809Z,13.20
2018-01-26T12:26:12.120Z,13.00
2018-01-26T12:28:41.440Z,13.00
2018-01-26T12:31:11.206Z,12.70
2018-01-26T12:34:11.105Z,12.50
2018-01-26T12:36:40.849Z,12.40
2018-01-26T12:39:10.101Z,12.10
2018-01-26T12:41:39.215Z,11.80
2018-01-26T12:44:09.520Z,12.10
2018-01-26T12:46:38.750Z,12.10
2018-01-26T12:49:07.984Z,12.10
2018-01-26T12:51:37.642Z,12.20
2018-01-26T12:54:07.553Z,12.30
2018-01-26T12:56:37.427Z,12.50
2018-01-26T12:59:07.134Z,12.40
2018-01-26T13:01:36.415Z,12.70
2018-01-26T13:04:05.716Z,12.60
2018-01-26T14:28:35.346Z,8.70
2018-01-26T14:31:04.782Z,8.60
2018-01-26T14:33:34.576Z,8.70
2018-01-26T14:36:04.121Z,8.60
2018-01-26T14:38:33.525Z,8.60
2018-01-26T14:41:03.026Z,8.70
2018-01-26T14:43:32.121Z,8.70
2018-01-26T14:46:01.471Z,8.70
2018-01-26T14:48:30.937Z,8.40
2018-01-26T14:51:00.335Z,8.20
2018-01-26T14:53:29.462Z,8.00
2018-01-26T14:55:59.013Z,7.90
2018-01-26T14:58:28.130Z,7.90
2018-01-26T15:00:57.539Z,7.90
2018-01-26T15:03:26.728Z,7.90
2018-01-26T15:05:55.822Z,7.80
2018-01-26T15:08:25.337Z,7.80
2018-01-26T15:10:54.436Z,7.60
2018-01-26T15:13:23.584Z,7.60
2018-01-26T15:15:52.841Z,7.50
2018-01-26T15:18:22.170Z,7.50
2018-01-26T15:20:51.789Z,7.40
2018-01-26T15:23:20.905Z,7.30
2018-01-26T15:25:50.016Z,7.10
2018-01-26T15:28:19.685Z,7.10
2018-01-26T15:30:49.885Z,7.00
2018-01-26T15:33:19.474Z,7.00
2018-01-26T15:35:48.613Z,7.10
2018-01-26T15:38:18.950Z,7.00
2018-01-26T15:40:48.807Z,7.00
2018-01-26T15:43:17.911Z,6.70
2018-01-26T15:45:47.228Z,6.50
2018-01-26T15:48:17.593Z,5.90
2018-01-26T15:50:47.457Z,5.70
2018-01-26T15:53:16.768Z,5.70
2018-01-26T15:55:45.939Z,5.50
2018-01-26T15:58:15.361Z,5.40
2018-01-26T16:00:45.321Z,5.60
2018-01-26T16:03:14.918Z,5.60
2018-01-26T16:05:44.774Z,5.20
2018-01-26T16:08:14.806Z,5.30
2018-01-26T16:10:43.968Z,5.20
2018-01-26T16:13:13.049Z,5.40
2018-01-26T16:15:47.284Z,5.50
2018-01-26T16:18:16.550Z,5.50
2018-01-26T16:20:45.692Z,5.50
2018-01-26T16:23:15.259Z,5.50
2018-01-26T16:25:45.404Z,5.30
2018-01-26T16:28:14.914Z,5.30
2018-01-26T16:30:45.231Z,5.10
2018-01-26T16:33:15.221Z,5.10
2018-01-26T16:35:44.360Z,5.00
2018-01-26T16:38:13.567Z,4.90
2018-01-26T16:40:43.762Z,4.70
2018-01-26T16:43:14.433Z,4.70
2018-01-26T16:45:43.562Z,4.60
2018-01-26T16:48:13.340Z,4.70
2018-01-26T16:50:44.370Z,4.60
2018-01-26T16:53:13.575Z,4.60
2018-01-26T16:55:43.422Z,4.40
2018-01-26T16:58:12.807Z,4.40
2018-01-26T17:00:42.690Z,4.30
2018-01-26T17:03:12.403Z,4.30
2018-01-26T17:05:42.337Z,4.30
2018-01-26T17:08:11.421Z,4.20
2018-01-26T17:10:40.535Z,4.00
2018-01-26T17:13:09.651Z,3.90
2018-01-26T17:15:39.577Z,3.90
2018-01-26T17:18:09.532Z,3.80
2018-01-26T17:20:38.725Z,3.90
2018-01-26T17:23:07.866Z,4.00
2018-01-26T17:25:37.109Z,4.00
2018-01-26T17:28:06.392Z,4.00
2018-01-26T17:30:36.699Z,4.00
2018-01-26T17:33:06.097Z,3.90
2018-01-26T17:35:36.101Z,3.90
2018-01-26T17:38:05.648Z,3.80
2018-01-26T17:40:35.197Z,3.80
2018-01-26T17:43:04.311Z,3.70
2018-01-26T17:45:33.877Z,3.60
2018-01-26T17:48:03.396Z,3.30
2018-01-26T17:50:32.817Z,3.10
2018-01-26T17:53:02.132Z,3.10
2018-01-26T17:55:31.582Z,3.00
2018-01-26T17:58:01.588Z,3.10
2018-01-26T18:00:30.846Z,3.10
2018-01-26T18:03:00.427Z,2.90
2018-01-26T18:05:29.655Z,2.70
2018-01-26T18:07:59.357Z,2.60
2018-01-26T18:10:29.273Z,2.60
2018-01-26T18:12:58.498Z,2.50
2018-01-26T18:15:27.865Z,2.60
2018-01-26T18:17:56.986Z,2.80
2018-01-26T18:20:26.858Z,2.70
2018-01-26T18:22:56.247Z,2.70
2018-01-26T18:25:25.346Z,2.70
2018-01-26T18:27:54.497Z,2.80
2018-01-26T18:30:24.837Z,2.60
2018-01-26T18:32:54.209Z,2.50
2018-01-26T18:35:24.091Z,2.40
2018-01-26T18:37:53.557Z,2.40
2018-01-26T18:40:23.015Z,2.60
2018-01-26T18:42:52.493Z,2.70
2018-01-26T18:45:21.957Z,2.90
2018-01-26T18:47:51.849Z,2.60
2018-01-26T18:50:21.169Z,2.50
2018-01-26T18:52:51.549Z,2.40
2018-01-26T18:55:20.693Z,2.40
2018-01-26T18:57:50.138Z,2.10
2018-01-26T19:00:19.605Z,1.90
2018-01-26T19:02:48.748Z,2.00
2018-01-26T19:05:17.805Z,2.20
2018-01-26T19:07:47.920Z,1.90
2018-01-26T19:10:17.210Z,1.80
2018-01-26T19:12:47.377Z,2.20
2018-01-26T19:15:17.593Z,2.10
2018-01-26T19:17:46.730Z,2.10
2018-01-26T19:20:15.989Z,2.10
2018-01-26T19:22:46.280Z,2.60
2018-01-26T19:25:16.195Z,2.60
2018-01-26T19:27:45.323Z,2.60
2018-01-26T19:30:14.964Z,2.50
2018-01-26T19:32:45.089Z,2.20
2018-01-26T19:35:15.156Z,2.00
2018-01-26T19:37:44.638Z,2.00
2018-01-26T19:40:14.505Z,1.80
2018-01-26T19:42:43.610Z,1.80
2018-01-26T19:45:13.004Z,1.70
2018-01-26T19:47:42.115Z,1.70
2018-01-26T19:50:11.161Z,1.70
2018-01-26T19:52:40.250Z,1.60
2018-01-26T19:55:09.822Z,1.50
2018-01-26T19:57:39.301Z,1.50
2018-01-26T20:00:08.082Z,1.50
2018-01-26T20:02:37.369Z,1.50
2018-01-26T20:05:16.137Z,1.40
2018-01-26T20:07:49.593Z,1.40
2018-01-26T20:10:19.925Z,1.20
2018-01-26T20:12:54.349Z,1.10
2018-01-26T20:15:23.459Z,1.10
2018-01-26T20:17:52.618Z,1.10
2018-01-26T20:20:21.703Z,0.90
2018-01-26T20:22:51.432Z,1.00
2018-01-26T20:25:21.622Z,0.90
2018-01-26T20:27:50.771Z,0.90
2018-01-26T20:30:19.902Z,1.10
2018-01-26T20:32:49.328Z,1.10
2018-01-26T20:35:18.721Z,1.10
2018-01-26T20:37:47.818Z,0.90
2018-01-26T20:40:18.177Z,0.70
2018-01-26T20:42:49.032Z,0.60
2018-01-26T20:45:18.189Z,0.60
2018-01-26T20:47:47.813Z,0.50
2018-01-26T20:50:16.985Z,0.40
2018-01-26T20:52:46.318Z,0.40
2018-01-26T20:55:15.791Z,0.50
2018-01-26T20:57:44.963Z,0.50
2018-01-26T21:00:14.073Z,0.50
2018-01-26T21:02:43.579Z,0.60
2018-01-26T21:05:12.724Z,0.70
2018-01-26T21:07:41.803Z,0.70
2018-01-26T21:10:11.227Z,0.50
2018-01-26T21:12:40.313Z,0.50
2018-01-26T21:15:09.672Z,0.50
2018-01-26T21:17:39.925Z,0.40
2018-01-26T21:20:10.029Z,0.50
2018-01-26T21:22:39.172Z,0.40
2018-01-26T21:25:08.546Z,0.40
2018-01-26T21:27:37.652Z,0.40
2018-01-26T21:30:06.793Z,0.40
2018-01-26T21:32:36.393Z,0.40
2018-01-26T21:35:06.853Z,0.30
2018-01-26T21:37:37.372Z,0.30
2018-01-26T21:40:06.831Z,0.30
2018-01-26T21:42:36.941Z,0.30
2018-01-26T21:45:06.396Z,0.30
2018-01-26T21:47:36.289Z,0.20
2018-01-26T21:50:06.157Z,0.00
2018-01-26T21:52:35.890Z,0.10
2018-01-26T21:55:06.822Z,0.00
2018-01-26T21:57:35.921Z,0.00
2018-01-26T22:00:05.253Z,0.10
2018-01-26T22:02:34.577Z,0.10
2018-01-26T22:05:08.029Z,0.00
2018-01-26T22:07:40.593Z,0.00
2018-01-26T22:10:09.900Z,-0.10
2018-01-26T22:12:38.993Z,0.00
2018-01-26T22:15:08.394Z,-0.10
2018-01-26T22:17:37.562Z,0.00
2018-01-26T22:20:07.348Z,-0.10
2018-01-26T22:22:36.505Z,0.00
2018-01-26T22:25:05.804Z,0.00
2018-01-26T22:27:35.552Z,0.00
2018-01-26T22:30:05.917Z,0.10
2018-01-26T22:32:35.033Z,0.10
2018-01-26T22:35:04.133Z,0.30
2018-01-26T22:37:33.478Z,0.30
2018-01-26T22:40:02.694Z,0.10
2018-01-26T22:42:32.080Z,-0.10
2018-01-26T22:45:01.804Z,-0.20
2018-01-26T22:47:31.102Z,-0.20
2018-01-26T22:50:00.504Z,-0.20
2018-01-26T22:52:29.672Z,-0.20
2018-01-26T22:54:59.567Z,-0.30
2018-01-26T22:57:29.117Z,-0.30
2018-01-26T22:59:58.252Z,-0.40
2018-01-26T23:02:27.560Z,-0.40
2018-01-26T23:04:56.906Z,-0.40
2018-01-26T23:07:26.807Z,-0.10
2018-01-26T23:09:56.664Z,0.10
2018-01-26T23:12:26.269Z,0.10
2018-01-26T23:14:55.429Z,0.20
2018-01-26T23:17:25.262Z,-0.30
2018-01-26T23:19:54.682Z,-0.30
2018-01-26T23:22:23.956Z,-0.30
2018-01-26T23:24:54.108Z,-0.30
2018-01-26T23:27:23.282Z,-0.30
2018-01-26T23:29:52.862Z,-0.30
2018-01-26T23:32:22.000Z,-0.30
2018-01-26T23:34:51.205Z,-0.30
2018-01-26T23:37:20.853Z,-0.30
2018-01-26T23:39:50.612Z,-0.30
2018-01-26T23:42:20.225Z,0.00
2018-01-26T23:44:49.686Z,0.00
2018-01-26T23:47:19.853Z,-0.30
2018-01-26T23:49:48.993Z,-0.40
2018-01-26T23:52:19.342Z,-0.30
2018-01-26T23:54:48.646Z,-0.30
2018-01-26T23:57:17.985Z,-0.30
2018-01-26T23:59:47.454Z,-0.40
